createdAt,value
2017-08-18T00:00:53.528Z,18.3
2017-08-18T00:01:55.146Z,18.3
2017-08-18T00:02:56.775Z,18.2
2017-08-18T00:03:58.404Z,18.2
2017-08-18T00:05:00.022Z,18.2
2017-08-18T00:06:01.646Z,18.2
2017-08-18T00:07:03.273Z,18.1
2017-08-18T00:08:04.897Z,18.1
2017-08-18T00:09:06.518Z,18.2
2017-08-18T00:10:08.132Z,18.2
2017-08-18T00:11:09.763Z,18.3
2017-08-18T00:12:11.394Z,18.2
2017-08-18T00:13:13.017Z,18.2
2017-08-18T00:14:14.638Z,18.2
2017-08-18T00:15:16.260Z,18.2
2017-08-18T00:16:17.882Z,18.2
2017-08-18T00:17:19.501Z,18.2
2017-08-18T00:18:21.134Z,18.2
2017-08-18T00:19:22.755Z,18.2
2017-08-18T00:20:24.379Z,18.2
2017-08-18T00:21:26.000Z,18.1
2017-08-18T00:22:27.623Z,18.2
2017-08-18T00:23:29.251Z,18.3
2017-08-18T00:24:30.870Z,18.2
2017-08-18T00:25:32.491Z,18.2
2017-08-18T00:26:34.122Z,18.3
2017-08-18T00:27:35.746Z,18.3
2017-08-18T00:28:37.364Z,18.3
2017-08-18T00:29:38.987Z,18.3
2017-08-18T00:30:40.611Z,18.3
2017-08-18T00:31:42.238Z,18.3
2017-08-18T00:32:43.857Z,18.2
2017-08-18T00:33:45.479Z,18.3
2017-08-18T00:34:47.106Z,18.3
2017-08-18T00:35:48.734Z,18.3
2017-08-18T00:36:50.357Z,18.2
2017-08-18T00:37:51.973Z,18.2
2017-08-18T00:38:53.604Z,18.2
2017-08-18T00:39:55.227Z,18.2
2017-08-18T00:40:56.848Z,18.2
2017-08-18T00:41:58.470Z,18.2
2017-08-18T00:43:00.097Z,18.1
2017-08-18T00:44:01.735Z,18.2
2017-08-18T00:45:03.351Z,18.2
2017-08-18T00:46:04.981Z,18.2
2017-08-18T00:47:06.610Z,18.1
2017-08-18T00:48:08.234Z,18.1
2017-08-18T00:49:09.853Z,18.1
2017-08-18T00:50:11.472Z,18.2
2017-08-18T00:51:13.106Z,18.2
2017-08-18T00:52:14.726Z,18.1
2017-08-18T00:53:16.341Z,18.2
2017-08-18T00:54:17.977Z,18.2
2017-08-18T00:55:19.591Z,18.2
2017-08-18T00:56:21.220Z,18.2
2017-08-18T00:57:22.841Z,18.2
2017-08-18T00:58:24.469Z,18.2
2017-08-18T00:59:26.098Z,18.2
2017-08-18T01:00:27.716Z,18.2
2017-08-18T01:01:29.343Z,18.1
2017-08-18T01:02:30.965Z,18.1
2017-08-18T01:03:32.591Z,18.1
2017-08-18T01:04:34.221Z,18.1
2017-08-18T01:05:35.845Z,18.0
2017-08-18T01:06:37.472Z,17.9
2017-08-18T01:07:39.095Z,18.0
2017-08-18T01:08:40.716Z,17.9
2017-08-18T01:09:42.346Z,17.9
2017-08-18T01:10:43.972Z,17.9
2017-08-18T01:11:45.603Z,17.9
2017-08-18T01:12:47.224Z,17.9
2017-08-18T01:13:48.849Z,17.9
2017-08-18T01:14:50.479Z,17.8
2017-08-18T01:15:52.107Z,17.8
2017-08-18T01:16:53.724Z,17.8
2017-08-18T01:17:55.344Z,17.7
2017-08-18T01:18:56.969Z,17.6
2017-08-18T01:19:58.602Z,17.6
2017-08-18T01:21:00.228Z,17.7
2017-08-18T01:22:01.852Z,17.7
2017-08-18T01:23:03.476Z,17.7
2017-08-18T01:24:05.105Z,17.7
2017-08-18T01:25:06.724Z,17.6
2017-08-18T01:26:08.346Z,17.6
2017-08-18T01:27:10.001Z,17.6
2017-08-18T01:28:11.624Z,17.5
2017-08-18T01:29:13.244Z,17.6
2017-08-18T01:30:14.872Z,17.5
2017-08-18T01:31:16.507Z,17.5
2017-08-18T01:32:18.130Z,17.4
2017-08-18T01:33:19.755Z,17.4
2017-08-18T01:34:21.384Z,17.4
2017-08-18T01:35:23.010Z,17.4
2017-08-18T01:36:24.628Z,17.3
2017-08-18T01:37:26.250Z,17.3
2017-08-18T01:38:27.880Z,17.3
2017-08-18T01:39:29.510Z,17.3
2017-08-18T01:40:31.129Z,17.3
2017-08-18T01:41:32.753Z,17.3
2017-08-18T01:42:34.382Z,17.3
2017-08-18T01:43:36.007Z,17.4
2017-08-18T01:44:37.624Z,17.4
2017-08-18T01:45:39.245Z,17.4
2017-08-18T01:46:40.871Z,17.4
2017-08-18T01:47:42.509Z,17.4
2017-08-18T01:48:44.130Z,17.4
2017-08-18T01:49:45.750Z,17.4
2017-08-18T01:50:47.380Z,17.4
2017-08-18T01:51:49.011Z,17.4
2017-08-18T01:52:50.632Z,17.3
2017-08-18T01:53:52.253Z,17.4
2017-08-18T01:54:54.679Z,17.3
2017-08-18T01:55:56.318Z,17.3
2017-08-18T01:56:57.950Z,17.3
2017-08-18T01:57:59.570Z,17.3
2017-08-18T01:59:01.188Z,17.3
2017-08-18T02:00:02.819Z,17.3
2017-08-18T02:01:04.441Z,17.3
2017-08-18T02:02:06.105Z,17.3
2017-08-18T02:03:07.734Z,17.3
2017-08-18T02:04:09.386Z,17.2
2017-08-18T02:05:11.001Z,17.2
2017-08-18T02:06:12.630Z,17.2
2017-08-18T02:07:14.247Z,17.2
2017-08-18T02:08:15.877Z,17.1
2017-08-18T02:09:17.509Z,17.1
2017-08-18T02:10:19.132Z,17.1
2017-08-18T02:11:20.753Z,17.1
2017-08-18T02:12:22.379Z,17.0
2017-08-18T02:13:24.014Z,17.1
2017-08-18T02:14:25.635Z,17.1
2017-08-18T02:15:27.262Z,17.1
2017-08-18T02:16:28.885Z,17.1
2017-08-18T02:17:30.508Z,17.0
2017-08-18T02:18:32.140Z,17.0
2017-08-18T02:19:33.775Z,17.0
2017-08-18T02:20:35.396Z,17.1
2017-08-18T02:21:37.030Z,17.0
2017-08-18T02:22:38.655Z,17.0
2017-08-18T02:23:40.280Z,17.0
2017-08-18T02:24:41.905Z,17.0
2017-08-18T02:25:43.525Z,17.0
2017-08-18T02:26:45.158Z,17.0
2017-08-18T02:27:46.780Z,17.2
2017-08-18T02:28:48.402Z,17.2
2017-08-18T02:29:50.024Z,17.2
2017-08-18T02:30:51.660Z,17.2
2017-08-18T02:31:53.285Z,17.2
2017-08-18T02:32:54.921Z,17.3
2017-08-18T02:33:56.553Z,17.4
2017-08-18T02:34:58.171Z,17.4
2017-08-18T02:35:59.799Z,17.5
2017-08-18T02:37:01.429Z,17.5
2017-08-18T02:38:03.051Z,17.5
2017-08-18T02:39:04.676Z,17.5
2017-08-18T02:40:06.308Z,17.6
2017-08-18T02:41:07.932Z,17.7
2017-08-18T02:42:09.554Z,17.6
2017-08-18T02:43:11.175Z,17.7
2017-08-18T02:44:12.809Z,17.7
2017-08-18T02:45:14.435Z,17.7
2017-08-18T02:46:16.059Z,17.7
2017-08-18T02:47:17.681Z,17.7
2017-08-18T02:48:19.303Z,17.8
2017-08-18T02:49:20.933Z,17.8
2017-08-18T02:50:22.552Z,17.8
2017-08-18T02:51:24.176Z,17.9
2017-08-18T02:52:25.800Z,17.9
2017-08-18T02:53:27.420Z,17.8
2017-08-18T02:54:29.052Z,17.9
2017-08-18T02:55:30.673Z,17.9
2017-08-18T02:56:32.297Z,18.0
2017-08-18T02:57:33.916Z,17.9
2017-08-18T02:58:35.543Z,17.9
2017-08-18T02:59:37.177Z,17.9
2017-08-18T03:00:38.798Z,17.9
2017-08-18T03:01:40.419Z,17.9
2017-08-18T03:02:42.046Z,17.9
2017-08-18T03:03:43.679Z,17.9
2017-08-18T03:04:45.296Z,18.0
2017-08-18T03:05:46.917Z,17.9
2017-08-18T03:06:48.552Z,18.0
2017-08-18T03:07:50.178Z,18.0
2017-08-18T03:08:51.815Z,17.9
2017-08-18T03:09:53.416Z,18.0
2017-08-18T03:10:55.040Z,18.0
2017-08-18T03:11:56.672Z,18.0
2017-08-18T03:12:58.306Z,18.0
2017-08-18T03:13:59.927Z,18.1
2017-08-18T03:15:01.558Z,18.0
2017-08-18T03:16:03.181Z,18.1
2017-08-18T03:17:04.813Z,18.1
2017-08-18T03:18:06.427Z,18.1
2017-08-18T03:19:08.051Z,18.1
2017-08-18T03:20:09.676Z,18.1
2017-08-18T03:21:11.300Z,18.1
2017-08-18T03:22:12.934Z,18.1
2017-08-18T03:23:14.555Z,18.2
2017-08-18T03:24:16.174Z,18.1
2017-08-18T03:25:17.794Z,18.1
2017-08-18T03:26:19.424Z,18.2
2017-08-18T03:27:21.054Z,18.2
2017-08-18T03:28:22.675Z,18.2
2017-08-18T03:29:24.298Z,18.1
2017-08-18T03:30:25.930Z,18.1
2017-08-18T03:31:27.557Z,17.9
2017-08-18T03:32:29.176Z,17.9
2017-08-18T03:33:30.796Z,17.9
2017-08-18T03:34:32.432Z,17.7
2017-08-18T03:35:34.060Z,17.8
2017-08-18T03:36:35.686Z,17.7
2017-08-18T03:37:37.315Z,17.7
2017-08-18T03:38:38.934Z,17.7
2017-08-18T03:39:40.554Z,17.6
2017-08-18T03:40:42.180Z,17.7
2017-08-18T03:41:43.800Z,17.6
2017-08-18T03:42:45.443Z,17.6
2017-08-18T03:43:47.058Z,17.5
2017-08-18T03:44:48.683Z,17.5
2017-08-18T03:45:50.304Z,17.6
2017-08-18T03:46:51.925Z,17.5
2017-08-18T03:47:53.562Z,17.5
2017-08-18T03:48:55.186Z,17.5
2017-08-18T03:49:56.807Z,17.4
2017-08-18T03:50:58.431Z,17.5
2017-08-18T03:52:00.063Z,17.4
2017-08-18T03:53:01.687Z,17.4
2017-08-18T03:54:03.304Z,17.4
2017-08-18T03:55:04.926Z,17.4
2017-08-18T03:56:06.556Z,17.4
2017-08-18T03:57:08.189Z,17.3
2017-08-18T03:58:09.823Z,17.4
2017-08-18T03:59:11.446Z,17.3
2017-08-18T04:00:13.064Z,17.2
2017-08-18T04:01:14.684Z,17.3
2017-08-18T04:02:16.309Z,17.2
2017-08-18T04:03:17.943Z,17.2
2017-08-18T04:04:19.565Z,17.2
2017-08-18T04:05:21.192Z,17.2
2017-08-18T04:06:22.816Z,17.2
2017-08-18T04:07:24.448Z,17.2
2017-08-18T04:08:26.070Z,17.1
2017-08-18T04:09:27.694Z,17.2
2017-08-18T04:10:29.329Z,17.2
2017-08-18T04:11:30.956Z,17.2
2017-08-18T04:12:32.576Z,17.2
2017-08-18T04:13:34.197Z,17.0
2017-08-18T04:14:35.825Z,17.0
2017-08-18T04:15:37.445Z,17.0
2017-08-18T04:16:39.067Z,17.0
2017-08-18T04:17:40.702Z,17.0
2017-08-18T04:18:42.337Z,17.0
2017-08-18T04:19:43.960Z,17.1
2017-08-18T04:20:45.582Z,17.1
2017-08-18T04:21:47.212Z,17.1
2017-08-18T04:22:48.843Z,17.0
2017-08-18T04:23:50.462Z,17.0
2017-08-18T04:24:52.088Z,17.1
2017-08-18T04:25:53.717Z,17.0
2017-08-18T04:26:55.338Z,17.1
2017-08-18T04:27:56.968Z,17.0
2017-08-18T04:28:58.592Z,17.0
2017-08-18T04:30:00.213Z,17.0
2017-08-18T04:31:01.842Z,17.1
2017-08-18T04:32:03.470Z,17.1
2017-08-18T04:33:05.104Z,17.1
2017-08-18T04:34:06.726Z,17.0
2017-08-18T04:35:08.346Z,17.0
2017-08-18T04:36:09.979Z,17.0
2017-08-18T04:37:11.606Z,17.0
2017-08-18T04:38:13.228Z,16.9
2017-08-18T04:39:14.853Z,17.1
2017-08-18T04:40:16.488Z,17.0
2017-08-18T04:41:18.115Z,17.0
2017-08-18T04:42:19.736Z,17.0
2017-08-18T04:43:21.371Z,17.0
2017-08-18T04:44:22.991Z,17.0
2017-08-18T04:45:24.612Z,17.0
2017-08-18T04:46:26.240Z,16.9
2017-08-18T04:47:27.866Z,16.9
2017-08-18T04:48:29.490Z,16.9
2017-08-18T04:49:31.111Z,16.9
2017-08-18T04:50:32.746Z,17.0
2017-08-18T04:51:34.372Z,16.9
2017-08-18T04:52:35.999Z,17.0
2017-08-18T04:53:37.635Z,17.0
2017-08-18T04:54:39.263Z,16.9
2017-08-18T04:55:40.900Z,16.9
2017-08-18T04:56:42.519Z,17.0
2017-08-18T04:57:44.141Z,17.0
2017-08-18T04:58:45.770Z,17.0
2017-08-18T04:59:47.392Z,17.0
2017-08-18T05:00:49.019Z,16.9
2017-08-18T05:01:50.650Z,16.9
2017-08-18T05:02:52.289Z,16.8
2017-08-18T05:03:53.909Z,16.9
2017-08-18T05:04:55.543Z,17.0
2017-08-18T05:05:57.429Z,17.0
2017-08-18T05:07:03.485Z,16.9
2017-08-18T05:08:05.118Z,16.9
2017-08-18T05:09:07.277Z,16.9
2017-08-18T05:10:08.912Z,16.9
2017-08-18T05:11:10.529Z,17.0
2017-08-18T05:12:12.153Z,17.0
2017-08-18T05:13:13.787Z,16.9
2017-08-18T05:14:15.414Z,17.0
2017-08-18T05:15:17.039Z,16.9
2017-08-18T05:16:19.080Z,16.9
2017-08-18T05:17:20.716Z,16.8
2017-08-18T05:18:22.348Z,16.9
2017-08-18T05:19:23.969Z,16.9
2017-08-18T05:20:25.592Z,16.8
2017-08-18T05:21:27.230Z,16.9
2017-08-18T05:22:28.857Z,16.9
2017-08-18T05:23:30.487Z,16.9
2017-08-18T05:24:32.116Z,17.0
2017-08-18T05:25:33.744Z,17.0
2017-08-18T05:26:35.377Z,16.9
2017-08-18T05:27:37.004Z,17.0
2017-08-18T05:28:38.628Z,17.0
2017-08-18T05:29:40.258Z,16.9
2017-08-18T05:30:41.895Z,16.9
2017-08-18T05:31:43.524Z,17.0
2017-08-18T05:32:45.147Z,16.9
2017-08-18T05:33:46.771Z,16.9
2017-08-18T05:34:48.393Z,16.9
2017-08-18T05:35:50.031Z,16.9
2017-08-18T05:36:51.666Z,17.0
2017-08-18T05:37:53.292Z,16.9
2017-08-18T05:38:54.920Z,16.9
2017-08-18T05:39:56.569Z,17.0
2017-08-18T05:40:58.168Z,16.9
2017-08-18T05:41:59.792Z,17.0
2017-08-18T05:43:01.418Z,17.0
2017-08-18T05:44:03.055Z,17.0
2017-08-18T05:45:04.689Z,17.0
2017-08-18T05:46:06.319Z,16.9
2017-08-18T05:47:07.939Z,16.9
2017-08-18T05:48:09.579Z,17.0
2017-08-18T05:49:11.204Z,16.9
2017-08-18T05:50:12.833Z,17.0
2017-08-18T05:51:14.472Z,16.9
2017-08-18T05:52:16.101Z,16.9
2017-08-18T05:53:17.797Z,16.9
2017-08-18T05:54:19.430Z,16.9
2017-08-18T05:55:21.055Z,16.8
2017-08-18T05:56:22.678Z,16.8
2017-08-18T05:57:24.334Z,16.9
2017-08-18T05:58:25.962Z,16.9
2017-08-18T05:59:27.588Z,16.8
2017-08-18T06:00:29.216Z,16.8
2017-08-18T06:01:30.840Z,16.8
2017-08-18T06:02:32.593Z,16.9
2017-08-18T06:03:34.232Z,16.8
2017-08-18T06:04:35.850Z,16.9
2017-08-18T06:05:37.482Z,17.0
2017-08-18T06:06:39.118Z,16.9
2017-08-18T06:07:40.745Z,16.9
2017-08-18T06:08:42.372Z,16.9
2017-08-18T06:09:44.008Z,17.0
2017-08-18T06:10:45.631Z,16.9
2017-08-18T06:11:47.257Z,16.9
2017-08-18T06:12:48.893Z,16.9
2017-08-18T06:13:50.513Z,16.9
2017-08-18T06:14:52.146Z,17.1
2017-08-18T06:15:53.772Z,17.0
2017-08-18T06:16:55.409Z,17.0
2017-08-18T06:17:57.040Z,17.1
2017-08-18T06:18:58.666Z,17.1
2017-08-18T06:20:00.292Z,17.1
2017-08-18T06:21:01.931Z,17.2
2017-08-18T06:22:03.572Z,17.3
2017-08-18T06:23:05.194Z,17.3
2017-08-18T06:24:06.822Z,17.3
2017-08-18T06:25:08.455Z,17.4
2017-08-18T06:26:10.091Z,17.4
2017-08-18T06:27:11.725Z,17.5
2017-08-18T06:28:13.351Z,17.4
2017-08-18T06:29:14.981Z,17.4
2017-08-18T06:30:16.604Z,17.5
2017-08-18T06:31:18.241Z,17.5
2017-08-18T06:32:19.870Z,17.5
2017-08-18T06:33:21.501Z,17.4
2017-08-18T06:34:23.125Z,17.4
2017-08-18T06:35:24.762Z,17.5
2017-08-18T06:36:26.389Z,17.4
2017-08-18T06:37:28.017Z,17.4
2017-08-18T06:38:29.647Z,17.5
2017-08-18T06:39:31.280Z,17.5
2017-08-18T06:40:32.914Z,17.5
2017-08-18T06:41:34.538Z,17.6
2017-08-18T06:42:36.173Z,17.6
2017-08-18T06:43:37.799Z,17.6
2017-08-18T06:44:39.427Z,17.6
2017-08-18T06:45:41.074Z,17.7
2017-08-18T06:46:42.712Z,17.7
2017-08-18T06:47:44.335Z,17.7
2017-08-18T06:48:45.966Z,17.7
2017-08-18T06:49:48.092Z,17.8
2017-08-18T06:50:49.728Z,17.7
2017-08-18T06:51:51.350Z,17.7
2017-08-18T06:52:52.974Z,17.7
2017-08-18T06:53:54.609Z,17.8
2017-08-18T06:54:56.238Z,17.7
2017-08-18T06:55:57.864Z,17.7
2017-08-18T06:56:59.490Z,17.7
2017-08-18T06:58:01.131Z,17.7
2017-08-18T06:59:02.757Z,17.7
2017-08-18T07:00:04.386Z,17.6
2017-08-18T07:01:06.022Z,17.7
2017-08-18T07:02:07.650Z,17.7
2017-08-18T07:03:09.277Z,17.7
2017-08-18T07:04:10.908Z,17.7
2017-08-18T07:05:12.544Z,17.6
2017-08-18T07:06:14.182Z,17.7
2017-08-18T07:07:15.811Z,17.6
2017-08-18T07:08:17.448Z,17.6
2017-08-18T07:09:19.074Z,17.7
2017-08-18T07:10:20.706Z,17.7
2017-08-18T07:11:22.336Z,17.7
2017-08-18T07:12:23.969Z,17.7
2017-08-18T07:13:25.606Z,17.8
2017-08-18T07:14:27.228Z,17.8
2017-08-18T07:15:28.860Z,17.8
2017-08-18T07:16:30.486Z,17.9
2017-08-18T07:17:32.116Z,17.9
2017-08-18T07:18:33.757Z,17.8
2017-08-18T07:19:35.399Z,17.9
2017-08-18T07:20:37.028Z,17.9
2017-08-18T07:21:38.661Z,17.9
2017-08-18T07:22:40.288Z,17.8
2017-08-18T07:23:41.921Z,17.9
2017-08-18T07:24:43.549Z,17.8
2017-08-18T07:25:45.197Z,17.9
2017-08-18T07:26:46.829Z,18.0
2017-08-18T07:27:48.457Z,18.0
2017-08-18T07:28:50.081Z,18.0
2017-08-18T07:29:51.712Z,18.1
2017-08-18T07:30:53.345Z,18.2
2017-08-18T07:31:54.973Z,18.3
2017-08-18T07:32:56.602Z,18.5
2017-08-18T07:33:58.241Z,18.6
2017-08-18T07:34:59.870Z,18.6
2017-08-18T07:36:01.499Z,18.6
2017-08-18T07:37:03.125Z,18.9
2017-08-18T07:38:04.753Z,18.9
2017-08-18T07:39:06.392Z,19.0
2017-08-18T07:40:08.022Z,19.0
2017-08-18T07:41:09.648Z,19.0
2017-08-18T07:42:11.279Z,19.1
2017-08-18T07:43:12.917Z,19.1
2017-08-18T07:44:14.555Z,19.1
2017-08-18T07:45:16.179Z,19.1
2017-08-18T07:46:17.812Z,19.2
2017-08-18T07:47:19.440Z,19.4
2017-08-18T07:48:21.066Z,19.4
2017-08-18T07:49:22.710Z,19.4
2017-08-18T07:50:24.326Z,19.4
2017-08-18T07:51:25.954Z,19.4
2017-08-18T07:52:27.582Z,19.4
2017-08-18T07:53:29.216Z,19.4
2017-08-18T07:54:30.863Z,19.6
2017-08-18T07:55:32.492Z,19.8
2017-08-18T07:56:34.122Z,19.9
2017-08-18T07:57:35.754Z,20.0
2017-08-18T07:58:37.392Z,20.1
2017-08-18T07:59:39.019Z,20.1
2017-08-18T08:00:40.647Z,20.3
2017-08-18T08:01:42.296Z,20.3
2017-08-18T08:02:43.928Z,20.3
2017-08-18T08:03:45.553Z,20.3
2017-08-18T08:04:47.192Z,20.4
2017-08-18T08:05:48.816Z,20.4
2017-08-18T08:06:50.446Z,20.3
2017-08-18T08:07:52.081Z,20.2
2017-08-18T08:08:53.712Z,20.1
2017-08-18T08:09:55.345Z,20.2
2017-08-18T08:10:56.971Z,20.4
2017-08-18T08:11:58.604Z,20.4
2017-08-18T08:13:00.228Z,20.5
2017-08-18T08:14:01.858Z,20.5
2017-08-18T08:15:03.493Z,20.5
2017-08-18T08:16:05.133Z,20.5
2017-08-18T08:17:06.773Z,20.5
2017-08-18T08:18:08.396Z,20.5
2017-08-18T08:19:10.024Z,20.7
2017-08-18T08:20:11.658Z,20.8
2017-08-18T08:21:13.284Z,20.7
2017-08-18T08:22:14.927Z,20.8
2017-08-18T08:23:16.559Z,20.8
2017-08-18T08:24:18.189Z,20.9
2017-08-18T08:25:19.818Z,20.9
2017-08-18T08:26:21.446Z,21.2
2017-08-18T08:27:23.088Z,21.3
2017-08-18T08:28:24.721Z,21.4
2017-08-18T08:29:26.362Z,21.4
2017-08-18T08:30:27.997Z,21.5
2017-08-18T08:31:29.625Z,21.6
2017-08-18T08:32:31.254Z,21.7
2017-08-18T08:33:32.880Z,21.7
2017-08-18T08:34:34.519Z,21.6
2017-08-18T08:35:36.151Z,21.5
2017-08-18T08:36:37.778Z,21.3
2017-08-18T08:37:39.419Z,21.0
2017-08-18T08:38:41.046Z,21.0
2017-08-18T08:39:42.676Z,21.1
2017-08-18T08:40:44.304Z,21.1
2017-08-18T08:41:45.937Z,20.9
2017-08-18T08:42:47.562Z,20.9
2017-08-18T08:43:49.189Z,20.8
2017-08-18T08:44:50.832Z,20.8
2017-08-18T08:45:52.464Z,20.9
2017-08-18T08:46:54.090Z,21.0
2017-08-18T08:47:55.717Z,21.1
2017-08-18T08:48:57.357Z,21.0
2017-08-18T08:49:58.997Z,21.2
2017-08-18T08:51:00.632Z,21.2
2017-08-18T08:52:02.258Z,21.4
2017-08-18T08:53:03.893Z,21.3
2017-08-18T08:54:05.519Z,21.3
2017-08-18T08:55:07.158Z,21.4
2017-08-18T08:56:08.790Z,21.4
2017-08-18T08:57:10.418Z,21.5
2017-08-18T08:58:12.050Z,21.4
2017-08-18T08:59:13.684Z,21.5
2017-08-18T09:00:15.329Z,21.6
2017-08-18T09:01:16.956Z,21.7
2017-08-18T09:02:18.584Z,21.8
2017-08-18T09:03:20.217Z,21.9
2017-08-18T09:04:21.860Z,22.1
2017-08-18T09:05:23.484Z,22.2
2017-08-18T09:06:25.114Z,22.3
2017-08-18T09:07:26.756Z,22.7
2017-08-18T09:08:28.388Z,23.3
2017-08-18T09:09:30.016Z,23.7
2017-08-18T09:10:31.661Z,24.3
2017-08-18T09:11:33.287Z,24.4
2017-08-18T09:12:34.921Z,24.4
2017-08-18T09:13:36.557Z,24.2
2017-08-18T09:14:38.197Z,24.3
2017-08-18T09:15:39.830Z,24.3
2017-08-18T09:16:41.455Z,24.2
2017-08-18T09:17:43.085Z,24.1
2017-08-18T09:18:44.721Z,24.1
2017-08-18T09:19:46.351Z,24.1
2017-08-18T09:20:47.982Z,24.1
2017-08-18T09:21:49.625Z,24.0
2017-08-18T09:22:51.264Z,24.1
2017-08-18T09:23:52.892Z,24.7
2017-08-18T09:24:54.524Z,24.9
2017-08-18T09:25:56.159Z,25.1
2017-08-18T09:26:57.788Z,25.2
2017-08-18T09:27:59.430Z,25.3
2017-08-18T09:29:01.066Z,25.1
2017-08-18T09:30:02.694Z,24.9
2017-08-18T09:31:04.325Z,24.7
2017-08-18T09:32:05.954Z,24.6
2017-08-18T09:33:07.586Z,24.6
2017-08-18T09:34:09.221Z,24.7
2017-08-18T09:35:10.850Z,24.6
2017-08-18T09:36:12.490Z,24.5
2017-08-18T09:37:14.129Z,24.5
2017-08-18T09:38:15.760Z,24.6
2017-08-18T09:39:17.390Z,24.8
2017-08-18T09:40:19.029Z,25.0
2017-08-18T09:41:20.662Z,25.2
2017-08-18T09:42:22.293Z,25.1
2017-08-18T09:43:23.931Z,24.8
2017-08-18T09:44:25.564Z,24.7
2017-08-18T09:45:27.203Z,24.4
2017-08-18T09:46:28.830Z,24.3
2017-08-18T09:47:30.461Z,24.3
2017-08-18T09:48:32.103Z,24.2
2017-08-18T09:49:33.737Z,24.4
2017-08-18T09:50:35.369Z,24.4
2017-08-18T09:51:36.999Z,24.3
2017-08-18T09:52:38.641Z,24.4
2017-08-18T09:53:40.275Z,24.2
2017-08-18T09:54:41.902Z,24.2
2017-08-18T09:55:43.541Z,24.2
2017-08-18T09:56:45.173Z,24.2
2017-08-18T09:57:46.821Z,24.3
2017-08-18T09:58:48.440Z,24.4
2017-08-18T09:59:50.075Z,24.4
2017-08-18T10:00:51.706Z,24.4
2017-08-18T10:01:53.335Z,24.6
2017-08-18T10:02:54.978Z,24.5
2017-08-18T10:03:56.618Z,24.5
2017-08-18T10:04:58.248Z,24.4
2017-08-18T10:05:59.878Z,24.3
2017-08-18T10:07:01.527Z,24.3
2017-08-18T10:08:03.166Z,24.2
2017-08-18T10:09:04.794Z,24.1
2017-08-18T10:10:06.427Z,23.8
2017-08-18T10:11:08.067Z,24.0
2017-08-18T10:12:09.706Z,24.0
2017-08-18T10:13:11.331Z,24.1
2017-08-18T10:14:12.960Z,24.0
2017-08-18T10:15:14.600Z,23.9
2017-08-18T10:16:16.231Z,23.9
2017-08-18T10:17:17.868Z,23.8
2017-08-18T10:18:19.515Z,23.7
2017-08-18T10:19:21.141Z,23.7
2017-08-18T10:20:22.768Z,23.7
2017-08-18T10:21:24.398Z,23.7
2017-08-18T10:22:26.032Z,23.8
2017-08-18T10:23:27.674Z,23.9
2017-08-18T10:24:29.301Z,23.8
2017-08-18T10:25:30.944Z,23.7
2017-08-18T10:26:32.582Z,23.6
2017-08-18T10:27:34.216Z,23.5
2017-08-18T10:28:35.844Z,23.4
2017-08-18T10:29:37.477Z,23.5
2017-08-18T10:30:39.116Z,23.3
2017-08-18T10:31:40.743Z,23.2
2017-08-18T10:32:42.379Z,23.2
2017-08-18T10:33:44.011Z,23.1
2017-08-18T10:34:45.637Z,22.9
2017-08-18T10:35:47.276Z,22.8
2017-08-18T10:36:48.916Z,22.8
2017-08-18T10:37:50.548Z,22.8
2017-08-18T10:38:52.189Z,22.8
2017-08-18T10:39:53.817Z,22.9
2017-08-18T10:40:55.462Z,22.8
2017-08-18T10:41:57.084Z,22.9
2017-08-18T10:42:58.717Z,22.9
2017-08-18T10:44:00.347Z,22.9
2017-08-18T10:45:01.979Z,22.8
2017-08-18T10:46:03.608Z,22.8
2017-08-18T10:47:05.237Z,22.7
2017-08-18T10:48:06.880Z,22.6
2017-08-18T10:49:08.512Z,22.6
2017-08-18T10:50:10.137Z,22.8
2017-08-18T10:51:11.766Z,22.7
2017-08-18T10:52:13.409Z,22.8
2017-08-18T10:53:15.043Z,22.7
2017-08-18T10:54:16.681Z,22.9
2017-08-18T10:55:18.324Z,22.8
2017-08-18T10:56:19.949Z,22.8
2017-08-18T10:57:21.591Z,22.9
2017-08-18T10:58:23.219Z,22.9
2017-08-18T10:59:24.870Z,22.9
2017-08-18T11:00:26.495Z,23.1
2017-08-18T11:01:28.126Z,23.0
2017-08-18T11:02:29.753Z,23.0
2017-08-18T11:03:31.379Z,23.0
2017-08-18T11:04:33.019Z,23.2
2017-08-18T11:05:34.649Z,23.2
2017-08-18T11:06:36.283Z,23.1
2017-08-18T11:07:37.922Z,23.3
2017-08-18T11:08:39.553Z,23.4
2017-08-18T11:09:41.188Z,23.5
2017-08-18T11:10:42.815Z,23.7
2017-08-18T11:11:44.445Z,23.7
2017-08-18T11:12:46.085Z,23.7
2017-08-18T11:13:47.712Z,23.8
2017-08-18T11:14:49.359Z,23.8
2017-08-18T11:15:50.988Z,23.7
2017-08-18T11:16:52.620Z,23.7
2017-08-18T11:17:54.249Z,23.7
2017-08-18T11:18:55.883Z,23.8
2017-08-18T11:19:57.520Z,23.6
2017-08-18T11:20:59.146Z,23.6
2017-08-18T11:22:00.775Z,23.7
2017-08-18T11:23:02.404Z,23.6
2017-08-18T11:24:04.041Z,23.5
2017-08-18T11:25:05.678Z,23.8
2017-08-18T11:26:07.306Z,23.7
2017-08-18T11:27:08.934Z,23.8
2017-08-18T11:28:10.580Z,23.7
2017-08-18T11:29:12.213Z,23.6
2017-08-18T11:30:13.840Z,23.6
2017-08-18T11:31:15.472Z,23.4
2017-08-18T11:32:17.111Z,23.3
2017-08-18T11:33:18.743Z,23.2
2017-08-18T11:34:20.368Z,23.0
2017-08-18T11:35:21.998Z,22.9
2017-08-18T11:36:23.631Z,23.0
2017-08-18T11:37:25.272Z,22.9
2017-08-18T11:38:26.922Z,22.7
2017-08-18T11:39:28.551Z,22.7
2017-08-18T11:40:30.178Z,22.7
2017-08-18T11:41:31.806Z,22.8
2017-08-18T11:42:33.440Z,22.5
2017-08-18T11:43:35.078Z,22.5
2017-08-18T11:44:36.706Z,22.6
2017-08-18T11:45:38.339Z,22.6
2017-08-18T11:46:39.973Z,22.5
2017-08-18T11:47:41.613Z,22.3
2017-08-18T11:48:43.238Z,22.4
2017-08-18T11:49:44.867Z,22.2
2017-08-18T11:50:46.514Z,22.2
2017-08-18T11:51:48.147Z,22.2
2017-08-18T11:52:49.775Z,22.2
2017-08-18T11:53:51.402Z,22.2
2017-08-18T11:54:53.029Z,22.3
2017-08-18T11:55:54.668Z,22.4
2017-08-18T11:56:56.298Z,22.4
2017-08-18T11:57:57.927Z,22.5
2017-08-18T11:58:59.572Z,22.5
2017-08-18T12:00:01.201Z,22.5
2017-08-18T12:01:02.829Z,22.7
2017-08-18T12:02:04.464Z,22.9
2017-08-18T12:03:06.090Z,22.9
2017-08-18T12:04:07.727Z,23.1
2017-08-18T12:05:09.356Z,23.2
2017-08-18T12:06:10.997Z,23.1
2017-08-18T12:07:12.618Z,23.1
2017-08-18T12:08:14.257Z,23.0
2017-08-18T12:09:15.889Z,22.9
2017-08-18T12:10:17.519Z,22.9
2017-08-18T12:11:19.169Z,22.8
2017-08-18T12:12:20.789Z,23.0
2017-08-18T12:13:22.423Z,23.0
2017-08-18T12:14:24.062Z,23.0
2017-08-18T12:15:25.689Z,23.1
2017-08-18T12:16:27.322Z,23.1
2017-08-18T12:17:28.954Z,23.0
2017-08-18T12:18:30.582Z,22.8
2017-08-18T12:19:32.217Z,22.9
2017-08-18T12:20:33.844Z,22.9
2017-08-18T12:21:35.475Z,22.8
2017-08-18T12:22:37.119Z,22.6
2017-08-18T12:23:38.758Z,22.4
2017-08-18T12:24:40.392Z,22.4
2017-08-18T12:25:42.018Z,22.4
2017-08-18T12:26:43.652Z,22.3
2017-08-18T12:27:45.284Z,22.0
2017-08-18T12:28:46.923Z,22.0
2017-08-18T12:29:48.547Z,22.0
2017-08-18T12:30:50.177Z,22.1
2017-08-18T12:31:51.819Z,22.1
2017-08-18T12:32:53.457Z,21.9
2017-08-18T12:33:55.079Z,21.9
2017-08-18T12:34:56.708Z,21.8
2017-08-18T12:35:58.351Z,21.7
2017-08-18T12:36:59.979Z,21.6
2017-08-18T12:38:01.604Z,21.5
2017-08-18T12:39:03.237Z,21.5
2017-08-18T12:40:04.863Z,21.4
2017-08-18T12:41:06.503Z,21.5
2017-08-18T12:42:08.129Z,21.4
2017-08-18T12:43:09.768Z,21.2
2017-08-18T12:44:11.396Z,21.1
2017-08-18T12:45:13.022Z,20.9
2017-08-18T12:46:14.663Z,20.9
2017-08-18T12:47:16.296Z,20.9
2017-08-18T12:48:17.921Z,20.8
2017-08-18T12:49:19.550Z,20.9
2017-08-18T12:50:21.187Z,20.9
2017-08-18T12:51:22.823Z,20.9
2017-08-18T12:52:24.451Z,21.0
2017-08-18T12:53:26.079Z,21.2
2017-08-18T12:54:27.715Z,21.3
2017-08-18T12:55:29.353Z,21.4
2017-08-18T12:56:30.982Z,21.5
2017-08-18T12:57:32.612Z,21.6
2017-08-18T12:58:34.253Z,21.6
2017-08-18T12:59:35.888Z,21.8
2017-08-18T13:00:37.507Z,21.9
2017-08-18T13:01:39.146Z,21.9
2017-08-18T13:02:40.790Z,22.1
2017-08-18T13:03:42.421Z,22.1
2017-08-18T13:04:44.066Z,22.3
2017-08-18T13:05:45.691Z,22.4
2017-08-18T13:06:47.322Z,22.6
2017-08-18T13:07:48.957Z,22.8
2017-08-18T13:08:50.585Z,22.9
2017-08-18T13:09:52.221Z,23.0
2017-08-18T13:10:53.862Z,22.9
2017-08-18T13:11:55.490Z,22.9
2017-08-18T13:12:57.117Z,23.1
2017-08-18T13:13:58.757Z,23.2
2017-08-18T13:15:00.387Z,23.3
2017-08-18T13:16:02.017Z,23.5
2017-08-18T13:17:03.659Z,23.5
2017-08-18T13:18:05.291Z,23.6
2017-08-18T13:19:06.925Z,23.5
2017-08-18T13:20:08.560Z,23.6
2017-08-18T13:21:10.186Z,23.5
2017-08-18T13:22:11.825Z,23.6
2017-08-18T13:23:13.458Z,23.6
2017-08-18T13:24:15.088Z,23.5
2017-08-18T13:25:16.725Z,23.6
2017-08-18T13:26:18.355Z,23.4
2017-08-18T13:27:19.983Z,23.5
2017-08-18T13:28:21.629Z,23.3
2017-08-18T13:29:23.260Z,23.3
2017-08-18T13:30:24.886Z,23.1
2017-08-18T13:31:26.519Z,22.9
2017-08-18T13:32:28.155Z,22.9
2017-08-18T13:33:29.782Z,22.8
2017-08-18T13:34:31.424Z,22.8
2017-08-18T13:35:33.054Z,22.8
2017-08-18T13:36:34.680Z,22.5
2017-08-18T13:37:36.323Z,22.5
2017-08-18T13:38:37.954Z,22.4
2017-08-18T13:39:39.584Z,22.4
2017-08-18T13:40:41.216Z,22.3